Flight Track Log - Related Links

Times and Time Zones

All times are in EDT time to prevent confusion due to time zone crossing. See the SKW5550 flight status page for this flight to view local times or setup timezone preferences in your user account.

Time Position Orientation Groundspeed Altitude Reporting Facility
EDT Latitude Longitude Course Direction KTS MPH feet Rate Location/Type
Wed 09:56:48 AM 44.5519 -108.9717 156° South 172 198 6,900  Level Salt Lake Center
Wed 09:57:49 AM 44.5250 -108.9069 120° Southeast 198 228 8,600 1,623 Climbing Salt Lake Center
Wed 09:58:00 AM 44.3391 -108.8389 157° South  Level Estimated
Wed 09:58:50 AM 44.4622 -108.8744 160° South 223 257 10,200  Level Salt Lake Center
Wed 09:59:00 AM 44.2377 -108.7724 155° Southeast  Level FlightAware Approximate
Wed 09:59:52 AM 44.3908 -108.8347 158° South 247 284 11,500  Level Salt Lake Center
Wed 10:00:00 AM 44.1473 -108.6801 157° South  Level Estimated
Wed 10:00:53 AM 44.3097 -108.7886 158° South 277 319 12,800  Level Salt Lake Center
Wed 10:01:00 AM 44.0436 -108.6210 158° South  Level FlightAware Approximate
Wed 10:01:56 AM 44.2286 -108.7147 147° Southeast 318 366 14,400  Level Salt Lake Center
Wed 10:02:00 AM 43.9534 -108.5286 156° South  Level Estimated
Wed 10:02:56 AM 44.1533 -108.6333 142° Southeast 337 388 16,400  Level Salt Lake Center
Wed 10:03:57 AM 44.0764 -108.5508 142° Southeast 347 399 18,200 1,805 Climbing Salt Lake Center
Wed 10:04:59 AM 43.9831 -108.4611 145° Southeast 343 395 20,100 1,610 Climbing Salt Lake Center
Wed 10:06:00 AM 43.9019 -108.3833 145° Southeast 352 405 21,500 1,082 Climbing Salt Lake Center
Wed 10:07:01 AM 43.8158 -108.3067 147° Southeast 366 421 22,300 878 Climbing Salt Lake Center
Wed 10:08:03 AM 43.7253 -108.2231 146° Southeast 388 447 23,300 1,122 Climbing Salt Lake Center
Wed 10:09:04 AM 43.6336 -108.1394 147° Southeast 394 453 24,600 1,171 Climbing Salt Lake Center
Wed 10:10:06 AM 43.5425 -108.0561 146° Southeast 394 453 25,700 976 Climbing Salt Lake Center
Wed 10:11:07 AM 43.4500 -107.9736 147° Southeast 397 457 26,600 829 Climbing Salt Lake Center
Wed 10:12:09 AM 43.3575 -107.8897 147° Southeast 399 459 27,400 780 Climbing Salt Lake Center
Wed 10:13:10 AM 43.2433 -107.7883 147° Southeast 407 468 28,200 634 Climbing Salt Lake Center
Wed 10:14:12 AM 43.1472 -107.7028 147° Southeast 412 474 28,700 488 Climbing Salt Lake Center
Wed 10:15:13 AM 43.0489 -107.6150 147° Southeast 421 484 29,200 492 Climbing Salt Lake Center
Wed 10:16:14 AM 42.9497 -107.5264 147° Southeast 427 491 29,700 537 Climbing Salt Lake Center
Wed 10:17:16 AM 42.8439 -107.4325 147° Southeast 427 491 30,300 537 Climbing Salt Lake Center
Wed 10:18:17 AM 42.7472 -107.3478 147° Southeast 431 496 30,800 341 Climbing Salt Lake Center
Wed 10:19:19 AM 42.6350 -107.2494 147° Southeast 429 494 31,000 98 Climbing Salt Lake Center
Wed 10:20:20 AM 42.5350 -107.1628 147° Southeast 439 505 31,000  Level Salt Lake Center
Wed 10:21:22 AM 42.4322 -107.0742 148° Southeast 453 521 31,000  Level Salt Lake Center
Wed 10:22:23 AM 42.3131 -106.9714 147° Southeast 455 524 31,000  Level Salt Lake Center
Wed 10:23:25 AM 42.2114 -106.8833 147° Southeast 453 521 31,000  Level Salt Lake Center
Wed 10:24:26 AM 42.0928 -106.7828 148° Southeast 450 518 31,000  Level Salt Lake Center
Wed 10:25:28 AM 41.9928 -106.6978 148° Southeast 446 513 31,000  Level Salt Lake Center
Wed 10:26:29 AM 41.8828 -106.6022 147° Southeast 442 509 31,000  Level Salt Lake Center
Wed 10:27:31 AM 41.7883 -106.5139 145° Southeast 436 502 31,000  Level Salt Lake Center
Wed 10:28:32 AM 41.6783 -106.4117 145° Southeast 432 497 31,000  Level Salt Lake Center
Wed 10:29:34 AM 41.5839 -106.3258 146° Southeast 431 496 31,000  Level Salt Lake Center
Wed 10:31:00 AM 41.4417 -106.1950 145° Southeast 430 495 31,000  Level Denver Center
Wed 10:32:02 AM 41.3333 -106.0972 146° Southeast 424 488 31,000  Level Denver Center
Wed 10:33:04 AM 41.2394 -106.0119 146° Southeast 426 490 31,000  Level Denver Center
Wed 10:34:06 AM 41.1308 -105.9119 145° Southeast 428 493 31,000  Level Denver Center
Wed 10:35:08 AM 41.0361 -105.8292 147° Southeast 427 491 31,000  Level Denver Center
Wed 10:36:10 AM 40.9403 -105.7417 145° Southeast 427 491 31,000 -581 Level Denver Center
Wed 10:37:12 AM 40.8428 -105.6547 146° Southeast 425 489 29,800 -1,645 Descending Denver Center
Wed 10:38:14 AM 40.7314 -105.5544 146° Southeast 405 466 27,600 -2,016 Descending Denver Center
Wed 10:39:17 AM 40.6417 -105.4750 146° Southeast 392 451 25,600 -1,920 Descending Denver Center
Wed 10:40:19 AM 40.5692 -105.3764 134° Southeast 385 443 23,600 -1,790 Descending Denver Center
Wed 10:41:21 AM 40.5119 -105.2717 126° Southeast 359 413 21,900 -1,694 Descending Denver Center
Wed 10:42:23 AM 40.4336 -105.1844 140° Southeast 346 398 20,100 -1,694 Descending Denver Center
Wed 10:43:25 AM 40.3650 -105.1094 140° Southeast 326 375 18,400 -2,081 Descending Denver Center
Wed 10:44:27 AM 40.2867 -105.0308 143° Southeast 330 380 15,800 -2,419 Descending Denver Center
Wed 10:45:29 AM 40.2172 -104.9578 141° Southeast 323 372 13,400 -1,355 Descending Denver Center
Wed 10:46:31 AM 40.1456 -104.8833 142° Southeast 308 354 13,000 -194 Descending Denver Center
Wed 10:47:33 AM 40.0792 -104.8147 142° Southeast 304 350 13,000 -290 Level Denver Center
Wed 10:48:35 AM 40.0097 -104.7431 142° Southeast 296 341 12,400 -823 Descending Denver Center
Wed 10:49:37 AM 39.9703 -104.6719 126° Southeast 255 293 11,300 -677 Descending Denver Center
Wed 10:50:39 AM 39.9672 -104.5808 92° East 251 289 11,000 -435 Descending Denver Center
Wed 10:51:41 AM 39.9650 -104.4881 92° East 236 272 10,400 -919 Descending Denver Center
Wed 10:52:43 AM 39.9619 -104.4092 93° East 221 254 9,100 -677 Descending Denver Center
Wed 10:53:45 AM 39.9567 -104.3242 95° East 219 252 9,000 -48 Descending Denver Center
Wed 10:54:47 AM 39.9047 -104.3100 168° South 204 235 9,000  Level Denver Center
Wed 10:55:49 AM 39.8756 -104.3711 238° Southwest 199 229 9,000 -484 Level Denver Center
Wed 10:56:51 AM 39.8750 -104.4453 269° West 188 216 8,000 -984 Descending Denver Center
Wed 10:57:51 AM 39.8833 -104.5167 279° West 189 217 7,000 -950 Descending Denver TRACON
Wed 10:58:51 AM 39.8833 -104.5667 270° West 153 176 6,100 -803 Descending Denver TRACON
Wed 10:59:58 AM 39.8775 -104.6269 263° West 144 166 5,300 -716 Descending Denver Center

Login

Don't have an account? Register now (free) for customized features, flight alerts, and more!